createdAt,value
2023-01-23T14:22:44.533Z,13.90
2023-01-23T14:25:18.514Z,13.40
2023-01-23T14:27:53.831Z,13.80
2023-01-23T14:30:27.172Z,11.80
2023-01-23T14:32:55.261Z,11.50
2023-01-23T14:35:30.795Z,13.40
2023-01-23T14:38:02.311Z,13.80
2023-01-23T14:40:37.348Z,12.90
2023-01-23T14:43:27.582Z,14.40
2023-01-23T14:46:06.686Z,13.40
2023-01-23T14:48:40.891Z,16.00
2023-01-23T14:51:18.949Z,14.90
2023-01-23T14:54:20.451Z,14.60
2023-01-23T14:56:50.891Z,15.10
2023-01-23T14:59:38.323Z,13.50
2023-01-23T15:02:33.785Z,15.10
2023-01-23T15:05:31.227Z,14.60
2023-01-23T15:08:20.280Z,16.80
2023-01-23T15:10:51.025Z,17.90
2023-01-23T15:13:35.406Z,16.70
2023-01-23T15:16:07.194Z,15.40
2023-01-23T15:18:36.374Z,14.60
2023-01-23T15:21:07.621Z,16.20
2023-01-23T15:23:40.416Z,16.30
2023-01-23T15:26:19.568Z,18.00
2023-01-23T15:29:19.217Z,16.00
2023-01-23T15:31:50.468Z,19.60
2023-01-23T15:34:18.816Z,17.80
2023-01-23T15:36:57.583Z,16.60
2023-01-23T15:39:55.062Z,14.50
2023-01-23T15:42:30.246Z,15.30
2023-01-23T15:45:01.265Z,15.40
2023-01-23T15:47:34.581Z,15.50
2023-01-23T15:50:03.982Z,17.20
2023-01-23T15:52:52.150Z,18.30
2023-01-23T15:55:22.265Z,19.00
2023-01-23T15:57:49.091Z,18.50
2023-01-23T16:00:26.856Z,15.50
2023-01-23T16:02:57.287Z,15.60
2023-01-23T16:05:28.607Z,16.00
2023-01-23T16:07:57.340Z,16.60
2023-01-23T16:10:44.580Z,16.40
2023-01-23T16:13:13.879Z,15.90
2023-01-23T16:15:40.883Z,16.70
2023-01-23T16:18:07.572Z,16.80
2023-01-23T16:20:43.516Z,16.00
2023-01-23T16:23:20.520Z,15.30
2023-01-23T16:25:47.929Z,15.30
2023-01-23T16:28:21.433Z,17.00
2023-01-23T16:30:50.702Z,17.00
2023-01-23T16:33:18.387Z,17.10
2023-01-23T16:35:46.370Z,16.40
2023-01-23T16:38:25.496Z,16.10
2023-01-23T16:40:54.917Z,18.10
2023-01-23T16:43:23.129Z,17.30
2023-01-23T16:45:49.745Z,18.70
2023-01-23T16:48:26.314Z,16.90
2023-01-23T16:51:00.799Z,16.70
2023-01-23T16:53:42.688Z,16.80
2023-01-23T16:56:21.332Z,17.40
2023-01-23T16:58:49.479Z,16.60
2023-01-23T17:01:20.780Z,18.00
2023-01-23T17:04:02.950Z,17.60
2023-01-23T17:06:30.621Z,17.70
2023-01-23T17:08:57.085Z,17.50
2023-01-23T17:11:29.873Z,16.50
2023-01-23T17:14:02.427Z,16.10
2023-01-23T17:16:29.878Z,14.80
2023-01-23T17:19:04.429Z,16.30
2023-01-23T17:21:34.723Z,17.10
2023-01-23T17:24:01.514Z,18.60
2023-01-23T17:26:28.076Z,17.10
2023-01-23T17:28:54.977Z,17.20
2023-01-23T17:31:28.906Z,15.90
2023-01-23T17:33:56.199Z,15.50
2023-01-23T17:36:25.047Z,16.00
2023-01-23T17:38:56.284Z,15.50
2023-01-23T17:41:22.982Z,14.60
2023-01-23T17:43:51.330Z,17.70
2023-01-23T17:46:29.023Z,16.50
2023-01-23T17:48:56.985Z,16.20
2023-01-23T17:51:26.062Z,16.70
2023-01-23T17:53:53.227Z,14.50
2023-01-23T17:56:19.634Z,12.20
2023-01-23T17:58:46.275Z,14.50
2023-01-23T18:01:39.302Z,14.60
2023-01-23T18:04:17.972Z,13.40
2023-01-23T18:06:45.034Z,13.10
2023-01-23T18:09:12.299Z,14.30
2023-01-23T18:11:52.587Z,14.80
2023-01-23T18:14:42.349Z,15.30
2023-01-23T18:17:33.387Z,14.90
2023-01-23T18:20:00.303Z,15.60
2023-01-23T18:22:27.449Z,15.80
2023-01-23T18:24:55.182Z,13.30
2023-01-23T18:27:25.823Z,16.40
2023-01-23T18:30:21.679Z,15.40
2023-01-23T18:33:22.509Z,15.00
2023-01-23T18:36:10.350Z,15.70
2023-01-23T18:39:32.182Z,14.70
2023-01-23T18:42:35.445Z,17.00
2023-01-23T18:45:11.291Z,14.70
2023-01-23T18:47:38.591Z,14.20
2023-01-23T18:50:07.728Z,12.50
2023-01-23T18:52:58.118Z,14.20
2023-01-23T18:56:10.417Z,13.80
2023-01-23T18:59:13.694Z,16.20
2023-01-23T19:02:13.242Z,16.90
2023-01-23T19:04:53.492Z,28.60
2023-01-23T19:07:20.279Z,16.70
2023-01-23T19:09:48.331Z,14.40
2023-01-23T19:12:41.022Z,16.10
2023-01-23T19:15:28.904Z,17.00
2023-01-23T19:18:14.154Z,15.90
2023-01-23T19:20:56.171Z,17.60
2023-01-23T19:23:53.808Z,18.20
2023-01-23T19:26:22.226Z,16.70
2023-01-23T19:28:50.661Z,15.90
2023-01-23T19:31:27.827Z,14.80
2023-01-23T19:33:55.567Z,14.60
2023-01-23T19:36:23.933Z,16.10
2023-01-23T19:38:52.538Z,16.10
2023-01-23T19:41:35.291Z,15.90
2023-01-23T19:44:03.028Z,15.90
2023-01-23T19:46:35.490Z,17.40
2023-01-23T19:49:03.915Z,18.20
2023-01-23T19:51:32.758Z,15.60
2023-01-23T19:54:00.088Z,17.30
2023-01-23T19:56:27.202Z,18.50
2023-01-23T19:58:53.934Z,18.90
2023-01-23T20:01:36.680Z,19.00
2023-01-23T20:04:03.835Z,16.40
2023-01-23T20:06:30.627Z,17.40
2023-01-23T20:08:57.070Z,15.80
2023-01-23T20:11:23.598Z,14.00
2023-01-23T20:13:50.141Z,13.60
2023-01-23T20:16:26.531Z,16.90
2023-01-23T20:18:54.671Z,15.00
2023-01-23T20:21:24.281Z,14.70
2023-01-23T20:23:52.206Z,16.30
2023-01-23T20:26:20.994Z,16.80
2023-01-23T20:28:51.131Z,21.30
2023-01-23T20:31:17.994Z,20.80
2023-01-23T20:33:44.578Z,18.20
2023-01-23T20:36:13.397Z,21.30
2023-01-23T20:38:40.696Z,16.20
2023-01-23T20:41:16.329Z,16.60
2023-01-23T20:43:43.265Z,14.20
2023-01-23T20:46:11.650Z,16.70
2023-01-23T20:48:41.860Z,20.30
2023-01-23T20:51:12.405Z,21.70
2023-01-23T20:53:40.017Z,22.40
2023-01-23T20:56:17.178Z,21.40
2023-01-23T20:59:07.560Z,17.40
2023-01-23T21:01:58.223Z,15.00
2023-01-23T21:04:29.872Z,13.00
2023-01-23T21:06:57.008Z,17.00
2023-01-23T21:09:23.964Z,16.90
2023-01-23T21:11:52.176Z,17.90
2023-01-23T21:14:20.072Z,19.40
2023-01-23T21:16:47.399Z,19.50
2023-01-23T21:19:14.961Z,18.40
2023-01-23T21:21:42.436Z,18.40
2023-01-23T21:24:09.260Z,17.60
2023-01-23T21:26:36.998Z,18.20
2023-01-23T21:29:04.800Z,18.80
2023-01-23T21:31:35.565Z,17.90
2023-01-23T21:34:06.221Z,18.70
2023-01-23T21:36:32.784Z,17.50
2023-01-23T21:39:00.098Z,17.10
2023-01-23T21:41:26.970Z,18.10
2023-01-23T21:43:53.641Z,15.50
2023-01-23T21:46:20.271Z,17.90
2023-01-23T21:48:46.868Z,16.10
2023-01-23T21:51:17.462Z,18.10
2023-01-23T21:53:46.981Z,18.00
2023-01-23T21:56:17.044Z,19.00
2023-01-23T21:58:44.174Z,16.60
2023-01-23T22:01:32.811Z,16.10
2023-01-23T22:04:07.410Z,17.10
2023-01-23T22:06:36.325Z,19.40
2023-01-23T22:09:04.824Z,17.40
2023-01-23T22:11:32.040Z,18.40
2023-01-23T22:13:59.132Z,16.80
2023-01-23T22:16:45.304Z,16.70
2023-01-23T22:19:14.843Z,13.60
2023-01-23T22:21:41.900Z,14.30
2023-01-23T22:24:09.090Z,18.00
2023-01-23T22:26:35.729Z,17.20
2023-01-23T22:29:02.182Z,19.20
2023-01-23T22:31:28.754Z,19.70
2023-01-23T22:33:55.849Z,18.80
2023-01-23T22:36:22.419Z,17.30
2023-01-23T22:38:54.418Z,16.80
2023-01-23T22:41:21.873Z,16.50
2023-01-23T22:43:54.424Z,15.40
2023-01-23T22:46:22.142Z,18.00
2023-01-23T22:48:48.946Z,18.40
2023-01-23T22:51:24.624Z,20.30
2023-01-23T22:53:53.669Z,19.50
2023-01-23T22:56:21.307Z,19.40
2023-01-23T22:58:49.698Z,16.00
2023-01-23T23:01:17.875Z,18.00
2023-01-23T23:03:45.587Z,16.80
2023-01-23T23:06:15.130Z,17.90
2023-01-23T23:08:45.058Z,19.10
2023-01-23T23:11:32.798Z,21.00
2023-01-23T23:13:59.600Z,17.60
2023-01-23T23:16:31.497Z,17.30
2023-01-23T23:19:03.438Z,22.70
2023-01-23T23:21:36.001Z,23.30
2023-01-23T23:24:08.635Z,20.50
2023-01-23T23:26:35.506Z,17.60
2023-01-23T23:29:02.689Z,19.50
2023-01-23T23:31:30.400Z,18.60
2023-01-23T23:33:57.991Z,19.60
2023-01-23T23:36:25.099Z,20.10
2023-01-23T23:38:51.508Z,19.50
2023-01-23T23:41:18.565Z,18.20
2023-01-23T23:43:45.703Z,17.90
2023-01-23T23:46:13.761Z,17.70
2023-01-23T23:48:41.727Z,17.10
2023-01-23T23:51:12.306Z,17.80
2023-01-23T23:53:39.537Z,19.00
2023-01-23T23:56:07.704Z,19.40
2023-01-23T23:58:37.856Z,18.00
